sensor_id;sensor_type;location;lat;lon;timestamp;P1;durP1;ratioP1;P2;durP2;ratioP2
25780;SDS011;13626;48.128;11.628;2023-01-28T00:00:53;26.50;;;12.80;;
25780;SDS011;13626;48.128;11.628;2023-01-28T00:03:20;27.13;;;12.90;;
25780;SDS011;13626;48.128;11.628;2023-01-28T00:05:48;27.80;;;13.85;;
25780;SDS011;13626;48.128;11.628;2023-01-28T00:08:15;31.60;;;13.88;;
25780;SDS011;13626;48.128;11.628;2023-01-28T00:10:42;29.30;;;14.77;;
25780;SDS011;13626;48.128;11.628;2023-01-28T00:13:10;28.92;;;14.27;;
25780;SDS011;13626;48.128;11.628;2023-01-28T00:15:40;29.85;;;13.95;;
25780;SDS011;13626;48.128;11.628;2023-01-28T00:18:07;30.55;;;14.10;;
25780;SDS011;13626;48.128;11.628;2023-01-28T00:20:35;30.92;;;13.93;;
25780;SDS011;13626;48.128;11.628;2023-01-28T00:23:02;28.67;;;13.85;;
25780;SDS011;13626;48.128;11.628;2023-01-28T00:25:29;30.45;;;14.23;;
25780;SDS011;13626;48.128;11.628;2023-01-28T00:27:57;28.60;;;13.85;;
25780;SDS011;13626;48.128;11.628;2023-01-28T00:30:24;32.40;;;14.90;;
25780;SDS011;13626;48.128;11.628;2023-01-28T00:32:52;29.40;;;13.63;;
25780;SDS011;13626;48.128;11.628;2023-01-28T00:35:20;31.10;;;13.95;;
25780;SDS011;13626;48.128;11.628;2023-01-28T00:37:47;30.58;;;14.10;;
25780;SDS011;13626;48.128;11.628;2023-01-28T00:40:14;30.13;;;14.60;;
25780;SDS011;13626;48.128;11.628;2023-01-28T00:42:41;31.67;;;14.05;;
25780;SDS011;13626;48.128;11.628;2023-01-28T00:45:09;29.48;;;13.75;;
25780;SDS011;13626;48.128;11.628;2023-01-28T00:47:36;29.75;;;14.95;;
25780;SDS011;13626;48.128;11.628;2023-01-28T00:50:03;30.38;;;13.77;;
25780;SDS011;13626;48.128;11.628;2023-01-28T00:52:31;28.27;;;13.70;;
25780;SDS011;13626;48.128;11.628;2023-01-28T00:54:58;28.60;;;13.50;;
25780;SDS011;13626;48.128;11.628;2023-01-28T00:57:26;26.25;;;13.32;;
25780;SDS011;13626;48.128;11.628;2023-01-28T00:59:53;29.67;;;13.65;;
25780;SDS011;13626;48.128;11.628;2023-01-28T01:02:20;26.85;;;13.05;;
25780;SDS011;13626;48.128;11.628;2023-01-28T01:04:47;30.70;;;13.80;;
25780;SDS011;13626;48.128;11.628;2023-01-28T01:07:24;32.65;;;13.82;;
25780;SDS011;13626;48.128;11.628;2023-01-28T01:10:00;28.98;;;14.02;;
25780;SDS011;13626;48.128;11.628;2023-01-28T01:12:28;29.90;;;13.32;;
25780;SDS011;13626;48.128;11.628;2023-01-28T01:14:55;31.27;;;13.57;;
25780;SDS011;13626;48.128;11.628;2023-01-28T01:17:23;27.40;;;12.80;;
25780;SDS011;13626;48.128;11.628;2023-01-28T01:19:50;28.77;;;13.38;;
25780;SDS011;13626;48.128;11.628;2023-01-28T01:22:17;27.23;;;13.48;;
25780;SDS011;13626;48.128;11.628;2023-01-28T01:24:46;24.15;;;12.88;;
25780;SDS011;13626;48.128;11.628;2023-01-28T01:27:13;30.02;;;13.02;;
25780;SDS011;13626;48.128;11.628;2023-01-28T01:29:40;30.83;;;13.25;;
25780;SDS011;13626;48.128;11.628;2023-01-28T01:32:08;27.92;;;13.20;;
25780;SDS011;13626;48.128;11.628;2023-01-28T01:34:35;29.20;;;13.35;;
25780;SDS011;13626;48.128;11.628;2023-01-28T01:37:02;28.92;;;13.68;;
25780;SDS011;13626;48.128;11.628;2023-01-28T01:39:31;32.10;;;14.25;;
25780;SDS011;13626;48.128;11.628;2023-01-28T01:41:58;24.70;;;12.73;;
25780;SDS011;13626;48.128;11.628;2023-01-28T01:44:51;27.13;;;13.75;;
25780;SDS011;13626;48.128;11.628;2023-01-28T01:49:49;24.98;;;12.68;;
25780;SDS011;13626;48.128;11.628;2023-01-28T01:52:18;33.17;;;14.57;;
25780;SDS011;13626;48.128;11.628;2023-01-28T01:54:47;30.02;;;14.15;;
25780;SDS011;13626;48.128;11.628;2023-01-28T01:57:19;27.80;;;14.25;;
25780;SDS011;13626;48.128;11.628;2023-01-28T01:59:47;28.75;;;13.73;;
25780;SDS011;13626;48.128;11.628;2023-01-28T02:02:14;28.08;;;14.18;;
25780;SDS011;13626;48.128;11.628;2023-01-28T02:04:42;32.25;;;14.25;;
25780;SDS011;13626;48.128;11.628;2023-01-28T02:07:11;27.58;;;13.48;;
25780;SDS011;13626;48.128;11.628;2023-01-28T02:09:39;29.75;;;13.88;;
25780;SDS011;13626;48.128;11.628;2023-01-28T02:14:35;32.63;;;14.82;;
25780;SDS011;13626;48.128;11.628;2023-01-28T02:17:03;28.90;;;13.57;;
25780;SDS011;13626;48.128;11.628;2023-01-28T02:19:42;26.63;;;12.55;;
25780;SDS011;13626;48.128;11.628;2023-01-28T02:22:33;30.00;;;13.73;;
25780;SDS011;13626;48.128;11.628;2023-01-28T02:27:45;29.55;;;14.07;;
25780;SDS011;13626;48.128;11.628;2023-01-28T02:30:36;30.10;;;14.52;;
25780;SDS011;13626;48.128;11.628;2023-01-28T02:33:04;28.38;;;13.48;;
25780;SDS011;13626;48.128;11.628;2023-01-28T02:35:34;31.50;;;14.18;;
25780;SDS011;13626;48.128;11.628;2023-01-28T02:38:06;29.35;;;14.32;;
25780;SDS011;13626;48.128;11.628;2023-01-28T02:40:35;28.05;;;14.18;;
25780;SDS011;13626;48.128;11.628;2023-01-28T02:43:30;30.13;;;14.10;;
25780;SDS011;13626;48.128;11.628;2023-01-28T02:45:57;29.15;;;13.65;;
25780;SDS011;13626;48.128;11.628;2023-01-28T02:48:44;30.85;;;14.00;;
25780;SDS011;13626;48.128;11.628;2023-01-28T02:51:56;30.83;;;13.95;;
25780;SDS011;13626;48.128;11.628;2023-01-28T02:54:04;28.67;;;13.73;;
25780;SDS011;13626;48.128;11.628;2023-01-28T02:59:16;30.73;;;13.93;;
25780;SDS011;13626;48.128;11.628;2023-01-28T03:05:02;26.65;;;13.40;;
25780;SDS011;13626;48.128;11.628;2023-01-28T03:07:31;26.55;;;12.23;;
25780;SDS011;13626;48.128;11.628;2023-01-28T03:10:00;25.17;;;12.80;;
25780;SDS011;13626;48.128;11.628;2023-01-28T03:12:29;32.47;;;15.20;;
25780;SDS011;13626;48.128;11.628;2023-01-28T03:15:17;31.05;;;13.73;;
25780;SDS011;13626;48.128;11.628;2023-01-28T03:18:06;32.13;;;14.23;;
25780;SDS011;13626;48.128;11.628;2023-01-28T03:23:51;28.25;;;13.65;;
25780;SDS011;13626;48.128;11.628;2023-01-28T03:26:51;29.40;;;13.80;;
25780;SDS011;13626;48.128;11.628;2023-01-28T03:29:39;27.25;;;13.10;;
25780;SDS011;13626;48.128;11.628;2023-01-28T03:32:26;24.95;;;12.95;;
25780;SDS011;13626;48.128;11.628;2023-01-28T03:35:13;28.30;;;13.35;;
25780;SDS011;13626;48.128;11.628;2023-01-28T03:38:01;29.77;;;13.32;;
25780;SDS011;13626;48.128;11.628;2023-01-28T03:40:49;27.98;;;12.50;;
25780;SDS011;13626;48.128;11.628;2023-01-28T03:43:17;27.30;;;13.25;;
25780;SDS011;13626;48.128;11.628;2023-01-28T03:45:44;27.83;;;13.82;;
25780;SDS011;13626;48.128;11.628;2023-01-28T03:48:20;30.65;;;14.20;;
25780;SDS011;13626;48.128;11.628;2023-01-28T03:50:48;27.02;;;12.70;;
25780;SDS011;13626;48.128;11.628;2023-01-28T03:53:16;27.20;;;13.63;;
25780;SDS011;13626;48.128;11.628;2023-01-28T03:55:44;29.10;;;13.70;;
25780;SDS011;13626;48.128;11.628;2023-01-28T03:58:12;25.98;;;13.70;;
25780;SDS011;13626;48.128;11.628;2023-01-28T04:00:39;26.38;;;13.63;;
25780;SDS011;13626;48.128;11.628;2023-01-28T04:03:10;29.17;;;13.18;;
25780;SDS011;13626;48.128;11.628;2023-01-28T04:05:46;28.63;;;14.48;;
25780;SDS011;13626;48.128;11.628;2023-01-28T04:08:14;29.58;;;13.98;;
25780;SDS011;13626;48.128;11.628;2023-01-28T04:10:41;30.67;;;13.50;;
25780;SDS011;13626;48.128;11.628;2023-01-28T04:13:09;26.00;;;12.27;;
25780;SDS011;13626;48.128;11.628;2023-01-28T04:15:38;28.50;;;13.48;;
25780;SDS011;13626;48.128;11.628;2023-01-28T04:18:05;28.45;;;14.00;;
25780;SDS011;13626;48.128;11.628;2023-01-28T04:20:32;28.90;;;14.27;;
25780;SDS011;13626;48.128;11.628;2023-01-28T04:23:00;26.05;;;12.30;;
25780;SDS011;13626;48.128;11.628;2023-01-28T04:25:27;29.08;;;13.10;;
25780;SDS011;13626;48.128;11.628;2023-01-28T04:27:54;28.30;;;13.25;;
25780;SDS011;13626;48.128;11.628;2023-01-28T04:30:22;27.00;;;13.52;;
25780;SDS011;13626;48.128;11.628;2023-01-28T04:32:49;25.80;;;13.35;;
25780;SDS011;13626;48.128;11.628;2023-01-28T04:35:16;26.70;;;12.45;;
25780;SDS011;13626;48.128;11.628;2023-01-28T04:37:44;24.48;;;13.02;;
25780;SDS011;13626;48.128;11.628;2023-01-28T04:40:11;26.27;;;13.07;;
25780;SDS011;13626;48.128;11.628;2023-01-28T04:42:39;25.70;;;13.15;;
25780;SDS011;13626;48.128;11.628;2023-01-28T04:45:07;26.80;;;13.25;;
25780;SDS011;13626;48.128;11.628;2023-01-28T04:47:34;25.90;;;12.43;;
25780;SDS011;13626;48.128;11.628;2023-01-28T04:50:01;28.20;;;12.90;;
25780;SDS011;13626;48.128;11.628;2023-01-28T04:52:28;29.60;;;13.68;;
25780;SDS011;13626;48.128;11.628;2023-01-28T04:54:55;28.58;;;13.02;;
25780;SDS011;13626;48.128;11.628;2023-01-28T04:57:23;26.27;;;12.48;;
25780;SDS011;13626;48.128;11.628;2023-01-28T04:59:50;30.67;;;14.38;;
25780;SDS011;13626;48.128;11.628;2023-01-28T05:02:17;28.00;;;13.80;;
25780;SDS011;13626;48.128;11.628;2023-01-28T05:04:44;24.98;;;12.98;;
25780;SDS011;13626;48.128;11.628;2023-01-28T05:07:12;26.98;;;13.32;;
25780;SDS011;13626;48.128;11.628;2023-01-28T05:09:39;27.98;;;13.80;;
25780;SDS011;13626;48.128;11.628;2023-01-28T05:12:06;26.70;;;13.15;;
25780;SDS011;13626;48.128;11.628;2023-01-28T05:14:33;27.85;;;12.63;;
25780;SDS011;13626;48.128;11.628;2023-01-28T05:17:00;28.02;;;13.10;;
25780;SDS011;13626;48.128;11.628;2023-01-28T05:19:28;28.75;;;13.15;;
25780;SDS011;13626;48.128;11.628;2023-01-28T05:21:55;28.30;;;13.50;;
25780;SDS011;13626;48.128;11.628;2023-01-28T05:24:22;28.65;;;12.73;;
25780;SDS011;13626;48.128;11.628;2023-01-28T05:26:49;29.25;;;14.07;;
25780;SDS011;13626;48.128;11.628;2023-01-28T05:29:17;26.90;;;12.70;;
25780;SDS011;13626;48.128;11.628;2023-01-28T05:31:44;27.15;;;13.25;;
25780;SDS011;13626;48.128;11.628;2023-01-28T05:34:11;27.58;;;13.57;;
25780;SDS011;13626;48.128;11.628;2023-01-28T05:36:38;26.80;;;13.38;;
25780;SDS011;13626;48.128;11.628;2023-01-28T05:39:06;29.35;;;13.43;;
25780;SDS011;13626;48.128;11.628;2023-01-28T05:41:33;26.67;;;13.23;;
25780;SDS011;13626;48.128;11.628;2023-01-28T05:44:00;24.35;;;12.02;;
25780;SDS011;13626;48.128;11.628;2023-01-28T05:46:28;30.40;;;13.68;;
25780;SDS011;13626;48.128;11.628;2023-01-28T05:48:55;29.67;;;13.40;;
25780;SDS011;13626;48.128;11.628;2023-01-28T05:51:22;25.45;;;13.07;;
25780;SDS011;13626;48.128;11.628;2023-01-28T05:53:49;30.92;;;13.63;;
25780;SDS011;13626;48.128;11.628;2023-01-28T05:56:16;25.67;;;12.77;;
25780;SDS011;13626;48.128;11.628;2023-01-28T05:58:43;26.30;;;12.68;;
25780;SDS011;13626;48.128;11.628;2023-01-28T06:01:11;27.00;;;12.88;;
25780;SDS011;13626;48.128;11.628;2023-01-28T06:03:38;26.20;;;12.73;;
25780;SDS011;13626;48.128;11.628;2023-01-28T06:06:05;26.10;;;12.27;;
25780;SDS011;13626;48.128;11.628;2023-01-28T06:08:32;19.50;;;10.35;;
25780;SDS011;13626;48.128;11.628;2023-01-28T06:10:59;26.42;;;11.88;;
25780;SDS011;13626;48.128;11.628;2023-01-28T06:13:26;24.15;;;11.80;;
25780;SDS011;13626;48.128;11.628;2023-01-28T06:15:54;26.10;;;12.13;;
25780;SDS011;13626;48.128;11.628;2023-01-28T06:18:21;25.35;;;11.35;;
25780;SDS011;13626;48.128;11.628;2023-01-28T06:20:48;29.08;;;12.35;;
25780;SDS011;13626;48.128;11.628;2023-01-28T06:23:16;23.75;;;12.23;;
25780;SDS011;13626;48.128;11.628;2023-01-28T06:25:43;26.38;;;12.25;;
25780;SDS011;13626;48.128;11.628;2023-01-28T06:28:10;22.77;;;11.48;;
25780;SDS011;13626;48.128;11.628;2023-01-28T06:30:38;25.27;;;12.05;;
25780;SDS011;13626;48.128;11.628;2023-01-28T06:33:05;22.35;;;11.13;;
25780;SDS011;13626;48.128;11.628;2023-01-28T06:35:32;24.25;;;11.25;;
25780;SDS011;13626;48.128;11.628;2023-01-28T06:37:59;27.13;;;13.10;;
25780;SDS011;13626;48.128;11.628;2023-01-28T06:40:27;23.33;;;11.50;;
25780;SDS011;13626;48.128;11.628;2023-01-28T06:42:54;26.00;;;12.43;;
25780;SDS011;13626;48.128;11.628;2023-01-28T06:45:21;24.25;;;12.52;;
25780;SDS011;13626;48.128;11.628;2023-01-28T06:47:51;23.65;;;11.40;;
25780;SDS011;13626;48.128;11.628;2023-01-28T06:50:18;26.88;;;12.85;;
25780;SDS011;13626;48.128;11.628;2023-01-28T06:52:45;25.98;;;11.80;;
25780;SDS011;13626;48.128;11.628;2023-01-28T06:55:12;26.88;;;12.93;;
25780;SDS011;13626;48.128;11.628;2023-01-28T06:57:40;25.65;;;12.48;;
25780;SDS011;13626;48.128;11.628;2023-01-28T07:00:08;29.85;;;13.27;;
25780;SDS011;13626;48.128;11.628;2023-01-28T07:02:36;26.35;;;12.50;;
25780;SDS011;13626;48.128;11.628;2023-01-28T07:05:04;28.25;;;13.77;;
25780;SDS011;13626;48.128;11.628;2023-01-28T07:07:31;28.08;;;13.02;;
25780;SDS011;13626;48.128;11.628;2023-01-28T07:09:59;26.25;;;13.43;;
25780;SDS011;13626;48.128;11.628;2023-01-28T07:12:26;26.77;;;12.88;;
25780;SDS011;13626;48.128;11.628;2023-01-28T07:14:53;24.52;;;13.00;;
25780;SDS011;13626;48.128;11.628;2023-01-28T07:17:20;29.45;;;12.95;;
25780;SDS011;13626;48.128;11.628;2023-01-28T07:19:48;26.40;;;12.43;;
25780;SDS011;13626;48.128;11.628;2023-01-28T07:22:15;30.00;;;14.00;;
25780;SDS011;13626;48.128;11.628;2023-01-28T07:24:42;28.02;;;13.45;;
25780;SDS011;13626;48.128;11.628;2023-01-28T07:27:09;29.35;;;13.88;;
25780;SDS011;13626;48.128;11.628;2023-01-28T07:29:36;28.65;;;12.82;;
25780;SDS011;13626;48.128;11.628;2023-01-28T07:32:03;30.45;;;13.57;;
25780;SDS011;13626;48.128;11.628;2023-01-28T07:34:32;26.08;;;12.38;;
25780;SDS011;13626;48.128;11.628;2023-01-28T07:37:02;27.63;;;12.90;;
25780;SDS011;13626;48.128;11.628;2023-01-28T07:39:29;26.48;;;13.05;;
25780;SDS011;13626;48.128;11.628;2023-01-28T07:41:57;27.52;;;12.30;;
25780;SDS011;13626;48.128;11.628;2023-01-28T07:44:24;26.77;;;13.15;;
25780;SDS011;13626;48.128;11.628;2023-01-28T07:46:51;28.17;;;14.02;;
25780;SDS011;13626;48.128;11.628;2023-01-28T07:49:19;27.98;;;13.20;;
25780;SDS011;13626;48.128;11.628;2023-01-28T07:51:46;24.73;;;12.40;;
25780;SDS011;13626;48.128;11.628;2023-01-28T07:54:15;24.25;;;11.88;;
25780;SDS011;13626;48.128;11.628;2023-01-28T07:56:43;28.88;;;13.73;;
25780;SDS011;13626;48.128;11.628;2023-01-28T07:59:10;27.27;;;12.90;;
25780;SDS011;13626;48.128;11.628;2023-01-28T08:01:37;24.05;;;11.73;;
25780;SDS011;13626;48.128;11.628;2023-01-28T08:04:05;30.15;;;13.13;;
25780;SDS011;13626;48.128;11.628;2023-01-28T08:06:32;26.02;;;14.38;;
25780;SDS011;13626;48.128;11.628;2023-01-28T08:09:06;24.80;;;13.10;;
25780;SDS011;13626;48.128;11.628;2023-01-28T08:11:33;27.33;;;13.27;;
25780;SDS011;13626;48.128;11.628;2023-01-28T08:14:03;26.05;;;12.68;;
25780;SDS011;13626;48.128;11.628;2023-01-28T08:16:30;27.20;;;13.40;;
25780;SDS011;13626;48.128;11.628;2023-01-28T08:18:57;26.80;;;13.23;;
25780;SDS011;13626;48.128;11.628;2023-01-28T08:21:24;27.17;;;12.43;;
25780;SDS011;13626;48.128;11.628;2023-01-28T08:23:52;25.75;;;13.10;;
25780;SDS011;13626;48.128;11.628;2023-01-28T08:26:20;25.05;;;12.88;;
25780;SDS011;13626;48.128;11.628;2023-01-28T08:28:47;26.27;;;13.02;;
25780;SDS011;13626;48.128;11.628;2023-01-28T08:31:16;26.08;;;12.88;;
25780;SDS011;13626;48.128;11.628;2023-01-28T08:33:44;23.17;;;12.02;;
25780;SDS011;13626;48.128;11.628;2023-01-28T08:36:11;29.15;;;11.80;;
25780;SDS011;13626;48.128;11.628;2023-01-28T08:38:38;28.17;;;12.77;;
25780;SDS011;13626;48.128;11.628;2023-01-28T08:41:05;22.85;;;11.82;;
25780;SDS011;13626;48.128;11.628;2023-01-28T08:43:32;23.73;;;11.80;;
25780;SDS011;13626;48.128;11.628;2023-01-28T08:46:00;24.75;;;12.27;;
25780;SDS011;13626;48.128;11.628;2023-01-28T08:48:27;24.85;;;12.82;;
25780;SDS011;13626;48.128;11.628;2023-01-28T08:50:54;23.70;;;11.57;;
25780;SDS011;13626;48.128;11.628;2023-01-28T08:53:24;21.83;;;10.90;;
25780;SDS011;13626;48.128;11.628;2023-01-28T08:55:52;26.02;;;11.57;;
25780;SDS011;13626;48.128;11.628;2023-01-28T08:58:21;24.73;;;11.55;;
25780;SDS011;13626;48.128;11.628;2023-01-28T09:00:49;25.27;;;11.90;;
25780;SDS011;13626;48.128;11.628;2023-01-28T09:03:16;24.90;;;12.18;;
25780;SDS011;13626;48.128;11.628;2023-01-28T09:05:44;24.42;;;12.02;;
25780;SDS011;13626;48.128;11.628;2023-01-28T09:08:12;26.27;;;12.05;;
25780;SDS011;13626;48.128;11.628;2023-01-28T09:10:40;27.60;;;12.05;;
25780;SDS011;13626;48.128;11.628;2023-01-28T09:13:08;23.00;;;11.50;;
25780;SDS011;13626;48.128;11.628;2023-01-28T09:15:36;24.67;;;11.57;;
25780;SDS011;13626;48.128;11.628;2023-01-28T09:18:04;25.00;;;11.90;;
25780;SDS011;13626;48.128;11.628;2023-01-28T09:20:31;21.40;;;11.25;;
25780;SDS011;13626;48.128;11.628;2023-01-28T09:22:59;23.75;;;11.82;;
25780;SDS011;13626;48.128;11.628;2023-01-28T09:25:27;23.40;;;11.32;;
25780;SDS011;13626;48.128;11.628;2023-01-28T09:27:55;24.00;;;12.00;;
25780;SDS011;13626;48.128;11.628;2023-01-28T09:30:23;21.55;;;10.50;;
25780;SDS011;13626;48.128;11.628;2023-01-28T09:32:50;18.92;;;10.55;;
25780;SDS011;13626;48.128;11.628;2023-01-28T09:35:18;22.42;;;10.85;;
25780;SDS011;13626;48.128;11.628;2023-01-28T09:37:46;23.98;;;11.27;;
25780;SDS011;13626;48.128;11.628;2023-01-28T09:45:35;23.17;;;10.50;;
25780;SDS011;13626;48.128;11.628;2023-01-28T09:50:32;21.70;;;10.85;;
25780;SDS011;13626;48.128;11.628;2023-01-28T09:53:09;23.48;;;10.90;;
25780;SDS011;13626;48.128;11.628;2023-01-28T09:55:38;23.27;;;11.20;;
25780;SDS011;13626;48.128;11.628;2023-01-28T09:58:09;21.08;;;11.18;;
25780;SDS011;13626;48.128;11.628;2023-01-28T10:05:57;22.70;;;11.65;;
25780;SDS011;13626;48.128;11.628;2023-01-28T10:13:38;18.15;;;9.95;;
25780;SDS011;13626;48.128;11.628;2023-01-28T10:16:11;21.60;;;11.15;;
25780;SDS011;13626;48.128;11.628;2023-01-28T10:24:16;19.83;;;10.82;;
25780;SDS011;13626;48.128;11.628;2023-01-28T10:26:38;18.83;;;11.85;;
25780;SDS011;13626;48.128;11.628;2023-01-28T10:29:11;19.25;;;11.13;;
25780;SDS011;13626;48.128;11.628;2023-01-28T10:31:42;20.88;;;10.95;;
25780;SDS011;13626;48.128;11.628;2023-01-28T10:34:10;21.35;;;11.23;;
25780;SDS011;13626;48.128;11.628;2023-01-28T10:36:37;23.05;;;12.02;;
25780;SDS011;13626;48.128;11.628;2023-01-28T10:39:05;21.38;;;11.13;;
25780;SDS011;13626;48.128;11.628;2023-01-28T10:41:34;21.13;;;11.05;;
25780;SDS011;13626;48.128;11.628;2023-01-28T10:44:15;23.90;;;11.52;;
25780;SDS011;13626;48.128;11.628;2023-01-28T10:46:43;20.27;;;11.43;;
25780;SDS011;13626;48.128;11.628;2023-01-28T10:49:15;18.92;;;10.65;;
25780;SDS011;13626;48.128;11.628;2023-01-28T10:51:44;19.63;;;10.98;;
25780;SDS011;13626;48.128;11.628;2023-01-28T10:56:46;21.10;;;11.35;;
25780;SDS011;13626;48.128;11.628;2023-01-28T11:01:52;22.40;;;10.18;;
25780;SDS011;13626;48.128;11.628;2023-01-28T11:04:27;17.83;;;10.45;;
25780;SDS011;13626;48.128;11.628;2023-01-28T11:07:04;19.05;;;10.32;;
25780;SDS011;13626;48.128;11.628;2023-01-28T11:09:36;19.83;;;10.98;;
25780;SDS011;13626;48.128;11.628;2023-01-28T11:15:00;19.77;;;11.05;;
25780;SDS011;13626;48.128;11.628;2023-01-28T11:17:30;20.45;;;10.75;;
25780;SDS011;13626;48.128;11.628;2023-01-28T11:19:58;19.02;;;11.05;;
25780;SDS011;13626;48.128;11.628;2023-01-28T11:24:53;18.77;;;10.85;;
25780;SDS011;13626;48.128;11.628;2023-01-28T11:27:22;19.42;;;10.48;;
25780;SDS011;13626;48.128;11.628;2023-01-28T11:29:51;18.95;;;10.60;;
25780;SDS011;13626;48.128;11.628;2023-01-28T11:32:21;15.15;;;9.00;;
25780;SDS011;13626;48.128;11.628;2023-01-28T11:34:52;16.73;;;9.60;;
25780;SDS011;13626;48.128;11.628;2023-01-28T11:37:21;15.25;;;9.15;;
25780;SDS011;13626;48.128;11.628;2023-01-28T11:39:48;17.15;;;10.18;;
25780;SDS011;13626;48.128;11.628;2023-01-28T11:42:19;19.67;;;10.13;;
25780;SDS011;13626;48.128;11.628;2023-01-28T11:44:46;20.15;;;10.85;;
25780;SDS011;13626;48.128;11.628;2023-01-28T12:10:13;15.18;;;8.52;;
25780;SDS011;13626;48.128;11.628;2023-01-28T12:15:51;13.43;;;8.05;;
25780;SDS011;13626;48.128;11.628;2023-01-28T12:18:26;11.98;;;7.78;;
25780;SDS011;13626;48.128;11.628;2023-01-28T12:33:58;14.45;;;8.35;;
25780;SDS011;13626;48.128;11.628;2023-01-28T12:39:07;13.40;;;7.75;;
25780;SDS011;13626;48.128;11.628;2023-01-28T12:41:46;14.10;;;8.27;;
25780;SDS011;13626;48.128;11.628;2023-01-28T12:44:19;13.95;;;8.18;;
25780;SDS011;13626;48.128;11.628;2023-01-28T12:47:07;16.52;;;9.77;;
25780;SDS011;13626;48.128;11.628;2023-01-28T12:49:38;19.83;;;10.10;;
25780;SDS011;13626;48.128;11.628;2023-01-28T12:54:40;12.90;;;8.15;;
25780;SDS011;13626;48.128;11.628;2023-01-28T12:57:13;14.25;;;8.30;;
25780;SDS011;13626;48.128;11.628;2023-01-28T12:59:47;16.85;;;9.20;;
25780;SDS011;13626;48.128;11.628;2023-01-28T13:09:48;14.50;;;7.95;;
25780;SDS011;13626;48.128;11.628;2023-01-28T13:12:17;14.68;;;8.25;;
25780;SDS011;13626;48.128;11.628;2023-01-28T13:14:45;13.65;;;7.47;;
25780;SDS011;13626;48.128;11.628;2023-01-28T13:17:27;13.05;;;7.80;;
25780;SDS011;13626;48.128;11.628;2023-01-28T13:19:54;15.20;;;8.55;;
25780;SDS011;13626;48.128;11.628;2023-01-28T13:22:26;15.65;;;8.65;;
25780;SDS011;13626;48.128;11.628;2023-01-28T13:24:54;17.38;;;8.65;;
25780;SDS011;13626;48.128;11.628;2023-01-28T13:27:23;17.08;;;8.82;;
25780;SDS011;13626;48.128;11.628;2023-01-28T13:29:59;14.82;;;7.97;;
25780;SDS011;13626;48.128;11.628;2023-01-28T13:32:28;14.80;;;8.93;;
25780;SDS011;13626;48.128;11.628;2023-01-28T13:35:03;16.85;;;8.32;;
25780;SDS011;13626;48.128;11.628;2023-01-28T13:37:33;14.65;;;8.40;;
25780;SDS011;13626;48.128;11.628;2023-01-28T13:42:34;16.17;;;8.02;;
25780;SDS011;13626;48.128;11.628;2023-01-28T13:47:45;15.30;;;7.90;;
25780;SDS011;13626;48.128;11.628;2023-01-28T13:50:20;16.50;;;9.13;;
25780;SDS011;13626;48.128;11.628;2023-01-28T13:52:57;20.25;;;9.05;;
25780;SDS011;13626;48.128;11.628;2023-01-28T13:55:26;13.75;;;7.40;;
25780;SDS011;13626;48.128;11.628;2023-01-28T14:18:52;17.50;;;9.57;;
25780;SDS011;13626;48.128;11.628;2023-01-28T14:21:20;16.70;;;8.75;;
25780;SDS011;13626;48.128;11.628;2023-01-28T14:23:48;19.75;;;9.65;;
25780;SDS011;13626;48.128;11.628;2023-01-28T14:31:32;16.58;;;8.88;;
25780;SDS011;13626;48.128;11.628;2023-01-28T14:34:21;16.50;;;8.85;;
25780;SDS011;13626;48.128;11.628;2023-01-28T14:36:50;16.15;;;8.85;;
25780;SDS011;13626;48.128;11.628;2023-01-28T14:39:19;17.05;;;9.20;;
25780;SDS011;13626;48.128;11.628;2023-01-28T14:41:48;18.90;;;9.85;;
25780;SDS011;13626;48.128;11.628;2023-01-28T14:44:35;17.50;;;9.23;;
25780;SDS011;13626;48.128;11.628;2023-01-28T14:47:09;17.70;;;9.00;;
25780;SDS011;13626;48.128;11.628;2023-01-28T14:49:47;20.75;;;8.80;;
25780;SDS011;13626;48.128;11.628;2023-01-28T14:55:06;17.13;;;8.75;;
25780;SDS011;13626;48.128;11.628;2023-01-28T14:57:44;17.33;;;8.57;;
25780;SDS011;13626;48.128;11.628;2023-01-28T15:00:15;16.38;;;9.30;;
25780;SDS011;13626;48.128;11.628;2023-01-28T15:02:43;21.35;;;9.60;;
25780;SDS011;13626;48.128;11.628;2023-01-28T15:05:19;15.88;;;9.60;;
25780;SDS011;13626;48.128;11.628;2023-01-28T15:07:46;16.73;;;9.48;;
25780;SDS011;13626;48.128;11.628;2023-01-28T15:10:19;17.65;;;9.90;;
25780;SDS011;13626;48.128;11.628;2023-01-28T15:12:48;19.08;;;10.20;;
25780;SDS011;13626;48.128;11.628;2023-01-28T15:15:18;19.33;;;9.30;;
25780;SDS011;13626;48.128;11.628;2023-01-28T15:17:46;20.35;;;8.88;;
25780;SDS011;13626;48.128;11.628;2023-01-28T15:20:22;16.10;;;9.27;;
25780;SDS011;13626;48.128;11.628;2023-01-28T15:22:51;15.75;;;9.05;;
25780;SDS011;13626;48.128;11.628;2023-01-28T15:25:22;18.05;;;8.90;;
25780;SDS011;13626;48.128;11.628;2023-01-28T15:27:50;16.38;;;8.80;;
25780;SDS011;13626;48.128;11.628;2023-01-28T15:30:25;23.83;;;9.40;;
25780;SDS011;13626;48.128;11.628;2023-01-28T15:33:02;19.23;;;9.65;;
25780;SDS011;13626;48.128;11.628;2023-01-28T15:35:30;17.50;;;8.68;;
25780;SDS011;13626;48.128;11.628;2023-01-28T15:37:57;18.17;;;9.65;;
25780;SDS011;13626;48.128;11.628;2023-01-28T15:40:25;16.20;;;9.20;;
25780;SDS011;13626;48.128;11.628;2023-01-28T15:42:52;18.45;;;8.50;;
25780;SDS011;13626;48.128;11.628;2023-01-28T15:45:21;17.55;;;9.75;;
25780;SDS011;13626;48.128;11.628;2023-01-28T15:47:49;16.00;;;8.43;;
25780;SDS011;13626;48.128;11.628;2023-01-28T15:50:18;17.77;;;9.63;;
25780;SDS011;13626;48.128;11.628;2023-01-28T15:52:46;15.63;;;8.82;;
25780;SDS011;13626;48.128;11.628;2023-01-28T15:57:52;15.38;;;7.75;;
25780;SDS011;13626;48.128;11.628;2023-01-28T16:00:20;18.58;;;8.10;;
25780;SDS011;13626;48.128;11.628;2023-01-28T16:02:48;16.48;;;8.73;;
25780;SDS011;13626;48.128;11.628;2023-01-28T16:05:27;14.48;;;8.10;;
25780;SDS011;13626;48.128;11.628;2023-01-28T16:07:55;16.35;;;8.55;;
25780;SDS011;13626;48.128;11.628;2023-01-28T16:10:27;17.92;;;9.77;;
25780;SDS011;13626;48.128;11.628;2023-01-28T16:13:05;16.30;;;8.73;;
25780;SDS011;13626;48.128;11.628;2023-01-28T16:15:32;16.33;;;8.68;;
25780;SDS011;13626;48.128;11.628;2023-01-28T16:18:02;16.40;;;8.48;;
25780;SDS011;13626;48.128;11.628;2023-01-28T16:20:30;17.25;;;8.52;;
25780;SDS011;13626;48.128;11.628;2023-01-28T16:23:01;15.75;;;8.45;;
25780;SDS011;13626;48.128;11.628;2023-01-28T16:25:30;18.65;;;8.40;;
25780;SDS011;13626;48.128;11.628;2023-01-28T16:27:59;18.52;;;8.32;;
25780;SDS011;13626;48.128;11.628;2023-01-28T16:30:26;19.25;;;9.13;;
25780;SDS011;13626;48.128;11.628;2023-01-28T16:32:54;21.02;;;9.05;;
25780;SDS011;13626;48.128;11.628;2023-01-28T16:35:23;19.08;;;9.32;;
25780;SDS011;13626;48.128;11.628;2023-01-28T16:37:50;18.13;;;8.50;;
25780;SDS011;13626;48.128;11.628;2023-01-28T16:40:18;17.10;;;8.60;;
25780;SDS011;13626;48.128;11.628;2023-01-28T16:42:46;19.73;;;8.15;;
25780;SDS011;13626;48.128;11.628;2023-01-28T16:45:20;16.80;;;8.40;;